sensor_id;sensor_type;location;lat;lon;timestamp;temperature;humidity
84902;DHT22;75166;51.198;6.010;2024-03-23T00:55:34;12.80;72.20
84902;DHT22;75166;51.198;6.010;2024-03-23T00:58:00;12.80;72.10
84902;DHT22;75166;51.198;6.010;2024-03-23T01:00:26;12.80;72.20
84902;DHT22;75166;51.198;6.010;2024-03-23T01:02:51;12.80;72.10
84902;DHT22;75166;51.198;6.010;2024-03-23T01:05:17;12.80;72.10
84902;DHT22;75166;51.198;6.010;2024-03-23T01:07:42;12.80;72.10
84902;DHT22;75166;51.198;6.010;2024-03-23T01:10:08;12.80;72.10
84902;DHT22;75166;51.198;6.010;2024-03-23T01:12:37;12.70;72.00
84902;DHT22;75166;51.198;6.010;2024-03-23T01:15:03;12.80;72.10
84902;DHT22;75166;51.198;6.010;2024-03-23T01:17:28;12.70;72.10
84902;DHT22;75166;51.198;6.010;2024-03-23T01:19:54;12.70;72.00
84902;DHT22;75166;51.198;6.010;2024-03-23T01:22:23;12.70;72.10
84902;DHT22;75166;51.198;6.010;2024-03-23T01:24:48;12.70;72.10
84902;DHT22;75166;51.198;6.010;2024-03-23T01:27:14;12.70;72.10
84902;DHT22;75166;51.198;6.010;2024-03-23T01:29:40;12.70;72.10
84902;DHT22;75166;51.198;6.010;2024-03-23T01:32:06;12.70;72.10
84902;DHT22;75166;51.198;6.010;2024-03-23T01:34:32;12.70;72.10
84902;DHT22;75166;51.198;6.010;2024-03-23T01:36:58;12.60;72.10
84902;DHT22;75166;51.198;6.010;2024-03-23T01:39:24;12.60;72.10
84902;DHT22;75166;51.198;6.010;2024-03-23T01:41:50;12.60;72.10
84902;DHT22;75166;51.198;6.010;2024-03-23T01:44:16;12.60;72.00
84902;DHT22;75166;51.198;6.010;2024-03-23T01:46:43;12.60;72.20
84902;DHT22;75166;51.198;6.010;2024-03-23T01:49:09;12.60;72.10
84902;DHT22;75166;51.198;6.010;2024-03-23T01:51:36;12.60;72.20
84902;DHT22;75166;51.198;6.010;2024-03-23T01:54:03;12.60;72.20
84902;DHT22;75166;51.198;6.010;2024-03-23T01:56:32;12.60;72.20
84902;DHT22;75166;51.198;6.010;2024-03-23T01:59:01;12.60;72.20
84902;DHT22;75166;51.198;6.010;2024-03-23T02:01:26;12.60;72.20
84902;DHT22;75166;51.198;6.010;2024-03-23T02:03:52;12.60;72.20
84902;DHT22;75166;51.198;6.010;2024-03-23T02:06:17;12.50;72.00
84902;DHT22;75166;51.198;6.010;2024-03-23T02:08:44;12.60;72.20
84902;DHT22;75166;51.198;6.010;2024-03-23T02:11:09;12.50;71.90
84902;DHT22;75166;51.198;6.010;2024-03-23T02:13:35;12.60;71.90
84902;DHT22;75166;51.198;6.010;2024-03-23T02:16:01;12.50;71.70
84902;DHT22;75166;51.198;6.010;2024-03-23T02:18:27;12.50;72.00
84902;DHT22;75166;51.198;6.010;2024-03-23T02:20:52;12.50;72.00
84902;DHT22;75166;51.198;6.010;2024-03-23T02:23:18;12.50;71.90
84902;DHT22;75166;51.198;6.010;2024-03-23T02:25:44;12.50;72.10
84902;DHT22;75166;51.198;6.010;2024-03-23T02:28:10;12.60;72.20
84902;DHT22;75166;51.198;6.010;2024-03-23T02:30:36;12.50;71.90
84902;DHT22;75166;51.198;6.010;2024-03-23T02:33:02;12.50;71.70
84902;DHT22;75166;51.198;6.010;2024-03-23T02:35:28;12.50;71.50
84902;DHT22;75166;51.198;6.010;2024-03-23T02:37:53;12.40;71.50
84902;DHT22;75166;51.198;6.010;2024-03-23T02:40:22;12.50;71.80
84902;DHT22;75166;51.198;6.010;2024-03-23T02:42:48;12.40;71.90
84902;DHT22;75166;51.198;6.010;2024-03-23T02:45:13;12.40;71.70
84902;DHT22;75166;51.198;6.010;2024-03-23T02:47:39;12.40;71.90
84902;DHT22;75166;51.198;6.010;2024-03-23T02:50:05;12.40;71.90
84902;DHT22;75166;51.198;6.010;2024-03-23T02:52:31;12.40;71.70
84902;DHT22;75166;51.198;6.010;2024-03-23T02:54:57;12.40;71.70
84902;DHT22;75166;51.198;6.010;2024-03-23T02:57:22;12.40;71.60
84902;DHT22;75166;51.198;6.010;2024-03-23T02:59:48;12.40;71.70
84902;DHT22;75166;51.198;6.010;2024-03-23T03:02:15;12.40;71.40
84902;DHT22;75166;51.198;6.010;2024-03-23T03:04:41;12.30;71.30
84902;DHT22;75166;51.198;6.010;2024-03-23T03:07:07;12.30;71.60
84902;DHT22;75166;51.198;6.010;2024-03-23T03:09:32;12.30;71.50
84902;DHT22;75166;51.198;6.010;2024-03-23T03:12:03;12.30;71.30
84902;DHT22;75166;51.198;6.010;2024-03-23T03:14:29;12.40;71.50
84902;DHT22;75166;51.198;6.010;2024-03-23T03:16:55;12.30;71.40
84902;DHT22;75166;51.198;6.010;2024-03-23T03:19:20;12.30;71.40
84902;DHT22;75166;51.198;6.010;2024-03-23T03:21:46;12.30;71.30
84902;DHT22;75166;51.198;6.010;2024-03-23T03:24:13;12.20;71.30
84902;DHT22;75166;51.198;6.010;2024-03-23T03:26:39;12.20;71.20
84902;DHT22;75166;51.198;6.010;2024-03-23T03:29:04;12.20;71.30
84902;DHT22;75166;51.198;6.010;2024-03-23T03:31:30;12.20;71.40
84902;DHT22;75166;51.198;6.010;2024-03-23T03:33:56;12.20;71.10
84902;DHT22;75166;51.198;6.010;2024-03-23T03:36:24;12.20;71.00
84902;DHT22;75166;51.198;6.010;2024-03-23T03:38:50;12.10;70.80
84902;DHT22;75166;51.198;6.010;2024-03-23T03:41:16;12.10;70.90
84902;DHT22;75166;51.198;6.010;2024-03-23T03:43:41;12.10;71.00
84902;DHT22;75166;51.198;6.010;2024-03-23T03:46:07;12.10;70.90
84902;DHT22;75166;51.198;6.010;2024-03-23T03:48:38;12.00;70.60
84902;DHT22;75166;51.198;6.010;2024-03-23T03:51:04;12.10;70.80
84902;DHT22;75166;51.198;6.010;2024-03-23T03:53:30;12.00;70.60
84902;DHT22;75166;51.198;6.010;2024-03-23T03:55:56;12.00;70.60
84902;DHT22;75166;51.198;6.010;2024-03-23T03:58:25;11.90;70.70
84902;DHT22;75166;51.198;6.010;2024-03-23T04:00:51;11.90;71.00
84902;DHT22;75166;51.198;6.010;2024-03-23T04:03:16;11.90;71.00
84902;DHT22;75166;51.198;6.010;2024-03-23T04:05:42;11.90;71.00
84902;DHT22;75166;51.198;6.010;2024-03-23T04:08:08;11.90;70.90
84902;DHT22;75166;51.198;6.010;2024-03-23T04:10:34;11.90;70.80
84902;DHT22;75166;51.198;6.010;2024-03-23T04:13:00;11.90;70.80
84902;DHT22;75166;51.198;6.010;2024-03-23T04:15:26;11.90;70.90
84902;DHT22;75166;51.198;6.010;2024-03-23T04:17:52;11.90;70.60
84902;DHT22;75166;51.198;6.010;2024-03-23T04:20:18;11.90;70.80
84902;DHT22;75166;51.198;6.010;2024-03-23T04:22:44;11.90;70.80
84902;DHT22;75166;51.198;6.010;2024-03-23T04:25:10;11.80;70.70
84902;DHT22;75166;51.198;6.010;2024-03-23T04:27:39;11.80;70.80
84902;DHT22;75166;51.198;6.010;2024-03-23T04:30:06;11.80;70.80
84902;DHT22;75166;51.198;6.010;2024-03-23T04:32:37;11.80;70.90
84902;DHT22;75166;51.198;6.010;2024-03-23T04:35:07;11.80;70.70
84902;DHT22;75166;51.198;6.010;2024-03-23T04:37:36;11.80;70.90
84902;DHT22;75166;51.198;6.010;2024-03-23T04:40:03;11.80;70.90
84902;DHT22;75166;51.198;6.010;2024-03-23T04:42:29;11.80;70.90
84902;DHT22;75166;51.198;6.010;2024-03-23T04:44:55;11.80;71.00
84902;DHT22;75166;51.198;6.010;2024-03-23T04:47:21;11.70;71.20
84902;DHT22;75166;51.198;6.010;2024-03-23T04:49:46;11.70;71.20
84902;DHT22;75166;51.198;6.010;2024-03-23T04:52:12;11.80;71.30
84902;DHT22;75166;51.198;6.010;2024-03-23T04:54:38;11.70;71.00
84902;DHT22;75166;51.198;6.010;2024-03-23T04:57:06;11.80;71.00
84902;DHT22;75166;51.198;6.010;2024-03-23T04:59:32;11.80;70.70
84902;DHT22;75166;51.198;6.010;2024-03-23T05:01:57;11.80;71.00
84902;DHT22;75166;51.198;6.010;2024-03-23T05:04:23;11.70;70.90
84902;DHT22;75166;51.198;6.010;2024-03-23T05:06:49;11.60;70.90
84902;DHT22;75166;51.198;6.010;2024-03-23T05:09:14;11.60;71.00
84902;DHT22;75166;51.198;6.010;2024-03-23T05:11:40;11.70;71.00
84902;DHT22;75166;51.198;6.010;2024-03-23T05:14:07;11.60;71.00
84902;DHT22;75166;51.198;6.010;2024-03-23T05:16:33;11.60;71.00
84902;DHT22;75166;51.198;6.010;2024-03-23T05:18:58;11.60;70.90
84902;DHT22;75166;51.198;6.010;2024-03-23T05:21:24;11.60;70.90
84902;DHT22;75166;51.198;6.010;2024-03-23T05:23:50;11.60;71.00
84902;DHT22;75166;51.198;6.010;2024-03-23T05:26:17;11.60;71.00
84902;DHT22;75166;51.198;6.010;2024-03-23T05:28:42;11.60;70.90
84902;DHT22;75166;51.198;6.010;2024-03-23T05:31:09;11.60;71.00
84902;DHT22;75166;51.198;6.010;2024-03-23T05:33:38;11.60;71.20
84902;DHT22;75166;51.198;6.010;2024-03-23T05:36:04;11.60;70.80
84902;DHT22;75166;51.198;6.010;2024-03-23T05:38:30;11.50;70.90
84902;DHT22;75166;51.198;6.010;2024-03-23T05:40:59;11.50;70.80
84902;DHT22;75166;51.198;6.010;2024-03-23T05:43:26;11.50;70.90
84902;DHT22;75166;51.198;6.010;2024-03-23T05:45:56;11.50;70.80
84902;DHT22;75166;51.198;6.010;2024-03-23T05:48:22;11.50;70.70
84902;DHT22;75166;51.198;6.010;2024-03-23T05:50:50;11.50;70.70
84902;DHT22;75166;51.198;6.010;2024-03-23T05:53:17;11.50;70.90
84902;DHT22;75166;51.198;6.010;2024-03-23T05:55:44;11.60;70.90
84902;DHT22;75166;51.198;6.010;2024-03-23T05:58:10;11.50;70.70
84902;DHT22;75166;51.198;6.010;2024-03-23T06:00:35;11.40;70.90
84902;DHT22;75166;51.198;6.010;2024-03-23T06:03:01;11.40;70.60
84902;DHT22;75166;51.198;6.010;2024-03-23T06:05:27;11.50;70.70
84902;DHT22;75166;51.198;6.010;2024-03-23T06:07:55;11.50;70.60
84902;DHT22;75166;51.198;6.010;2024-03-23T06:10:21;11.40;70.70
84902;DHT22;75166;51.198;6.010;2024-03-23T06:12:47;11.40;70.80
84902;DHT22;75166;51.198;6.010;2024-03-23T06:15:14;11.40;70.70
84902;DHT22;75166;51.198;6.010;2024-03-23T06:17:40;11.30;70.70
84902;DHT22;75166;51.198;6.010;2024-03-23T06:20:06;11.30;70.60
84902;DHT22;75166;51.198;6.010;2024-03-23T06:22:32;11.30;70.60
84902;DHT22;75166;51.198;6.010;2024-03-23T06:25:02;11.30;70.90
84902;DHT22;75166;51.198;6.010;2024-03-23T06:27:28;11.30;70.80
84902;DHT22;75166;51.198;6.010;2024-03-23T06:29:53;11.20;70.70
84902;DHT22;75166;51.198;6.010;2024-03-23T06:32:20;11.20;70.60
84902;DHT22;75166;51.198;6.010;2024-03-23T06:34:46;11.20;70.70
84902;DHT22;75166;51.198;6.010;2024-03-23T06:37:12;11.20;70.70
84902;DHT22;75166;51.198;6.010;2024-03-23T06:39:38;11.20;70.70
84902;DHT22;75166;51.198;6.010;2024-03-23T06:42:04;11.10;70.70
84902;DHT22;75166;51.198;6.010;2024-03-23T06:44:30;11.10;70.90
84902;DHT22;75166;51.198;6.010;2024-03-23T06:46:58;11.10;72.00
84902;DHT22;75166;51.198;6.010;2024-03-23T06:49:24;11.10;71.10
84902;DHT22;75166;51.198;6.010;2024-03-23T06:51:50;11.10;71.10
84902;DHT22;75166;51.198;6.010;2024-03-23T06:54:19;11.10;71.10
84902;DHT22;75166;51.198;6.010;2024-03-23T06:56:48;11.00;70.90
84902;DHT22;75166;51.198;6.010;2024-03-23T06:59:14;11.00;71.00
84902;DHT22;75166;51.198;6.010;2024-03-23T07:01:39;11.00;70.90
84902;DHT22;75166;51.198;6.010;2024-03-23T07:04:05;11.00;70.90
84902;DHT22;75166;51.198;6.010;2024-03-23T07:06:31;11.00;70.90
84902;DHT22;75166;51.198;6.010;2024-03-23T07:08:56;11.00;71.10
84902;DHT22;75166;51.198;6.010;2024-03-23T07:11:23;11.00;70.90
84902;DHT22;75166;51.198;6.010;2024-03-23T07:13:52;11.00;70.80
84902;DHT22;75166;51.198;6.010;2024-03-23T07:16:18;11.00;70.70
84902;DHT22;75166;51.198;6.010;2024-03-23T07:18:44;11.00;70.50
84902;DHT22;75166;51.198;6.010;2024-03-23T07:21:09;11.00;70.30
84902;DHT22;75166;51.198;6.010;2024-03-23T07:23:35;11.00;70.30
84902;DHT22;75166;51.198;6.010;2024-03-23T07:26:03;11.00;70.10
84902;DHT22;75166;51.198;6.010;2024-03-23T07:28:33;11.00;70.50
84902;DHT22;75166;51.198;6.010;2024-03-23T07:31:11;11.00;70.10
84902;DHT22;75166;51.198;6.010;2024-03-23T07:33:40;11.00;70.10
84902;DHT22;75166;51.198;6.010;2024-03-23T07:36:06;11.10;70.00
84902;DHT22;75166;51.198;6.010;2024-03-23T07:38:32;10.90;69.80
84902;DHT22;75166;51.198;6.010;2024-03-23T07:41:15;11.00;69.80
84902;DHT22;75166;51.198;6.010;2024-03-23T07:43:45;11.00;69.90
84902;DHT22;75166;51.198;6.010;2024-03-23T07:46:11;11.00;69.60
84902;DHT22;75166;51.198;6.010;2024-03-23T07:48:38;11.00;70.50
84902;DHT22;75166;51.198;6.010;2024-03-23T07:53:33;10.90;69.80
84902;DHT22;75166;51.198;6.010;2024-03-23T07:56:00;10.90;69.60
84902;DHT22;75166;51.198;6.010;2024-03-23T07:58:27;10.90;69.80
84902;DHT22;75166;51.198;6.010;2024-03-23T08:00:53;10.90;70.00
84902;DHT22;75166;51.198;6.010;2024-03-23T08:03:19;10.90;69.60
84902;DHT22;75166;51.198;6.010;2024-03-23T08:05:45;10.90;69.90
84902;DHT22;75166;51.198;6.010;2024-03-23T08:08:11;10.90;69.80
84902;DHT22;75166;51.198;6.010;2024-03-23T08:10:37;10.90;69.90
84902;DHT22;75166;51.198;6.010;2024-03-23T08:13:12;10.90;70.00
84902;DHT22;75166;51.198;6.010;2024-03-23T08:15:37;10.90;69.90
84902;DHT22;75166;51.198;6.010;2024-03-23T08:18:03;10.90;69.90
84902;DHT22;75166;51.198;6.010;2024-03-23T08:20:30;10.90;70.00
84902;DHT22;75166;51.198;6.010;2024-03-23T08:22:55;10.90;70.00
84902;DHT22;75166;51.198;6.010;2024-03-23T08:25:21;10.90;70.20
84902;DHT22;75166;51.198;6.010;2024-03-23T08:27:47;10.90;70.10
84902;DHT22;75166;51.198;6.010;2024-03-23T08:30:12;10.90;70.10
84902;DHT22;75166;51.198;6.010;2024-03-23T08:32:38;10.90;70.10
84902;DHT22;75166;51.198;6.010;2024-03-23T08:35:04;11.00;70.10
84902;DHT22;75166;51.198;6.010;2024-03-23T08:37:30;10.90;70.10
84902;DHT22;75166;51.198;6.010;2024-03-23T08:39:55;10.90;70.20
84902;DHT22;75166;51.198;6.010;2024-03-23T08:42:21;11.00;70.10
84902;DHT22;75166;51.198;6.010;2024-03-23T08:44:47;10.90;69.80
84902;DHT22;75166;51.198;6.010;2024-03-23T08:47:15;11.00;70.00
84902;DHT22;75166;51.198;6.010;2024-03-23T08:49:41;10.90;69.80
84902;DHT22;75166;51.198;6.010;2024-03-23T08:52:07;11.00;69.80
84902;DHT22;75166;51.198;6.010;2024-03-23T08:54:33;10.90;70.10
84902;DHT22;75166;51.198;6.010;2024-03-23T08:56:59;10.90;70.20
84902;DHT22;75166;51.198;6.010;2024-03-23T08:59:25;11.00;69.90
84902;DHT22;75166;51.198;6.010;2024-03-23T09:01:51;11.00;69.30
84902;DHT22;75166;51.198;6.010;2024-03-23T09:04:17;11.00;69.00
84902;DHT22;75166;51.198;6.010;2024-03-23T09:06:43;11.00;69.20
84902;DHT22;75166;51.198;6.010;2024-03-23T09:09:09;11.00;69.30
84902;DHT22;75166;51.198;6.010;2024-03-23T09:11:34;11.00;69.50
84902;DHT22;75166;51.198;6.010;2024-03-23T09:14:00;11.00;69.40
84902;DHT22;75166;51.198;6.010;2024-03-23T09:16:25;11.00;69.40
84902;DHT22;75166;51.198;6.010;2024-03-23T09:18:52;11.00;69.20
84902;DHT22;75166;51.198;6.010;2024-03-23T09:21:18;11.00;68.70
84902;DHT22;75166;51.198;6.010;2024-03-23T09:23:45;11.00;68.50
84902;DHT22;75166;51.198;6.010;2024-03-23T09:26:11;11.00;68.50
84902;DHT22;75166;51.198;6.010;2024-03-23T09:28:36;11.10;68.80
84902;DHT22;75166;51.198;6.010;2024-03-23T09:31:03;11.00;68.70
84902;DHT22;75166;51.198;6.010;2024-03-23T09:33:29;11.00;68.60
84902;DHT22;75166;51.198;6.010;2024-03-23T09:35:55;11.10;68.70
84902;DHT22;75166;51.198;6.010;2024-03-23T09:38:22;11.10;68.10
84902;DHT22;75166;51.198;6.010;2024-03-23T09:40:50;11.10;68.00
84902;DHT22;75166;51.198;6.010;2024-03-23T09:43:18;11.10;68.70
84902;DHT22;75166;51.198;6.010;2024-03-23T09:45:45;11.10;67.60
84902;DHT22;75166;51.198;6.010;2024-03-23T09:48:11;11.10;67.70
84902;DHT22;75166;51.198;6.010;2024-03-23T09:50:38;11.10;67.80
84902;DHT22;75166;51.198;6.010;2024-03-23T09:53:08;11.20;67.60
84902;DHT22;75166;51.198;6.010;2024-03-23T09:55:34;11.20;67.80
84902;DHT22;75166;51.198;6.010;2024-03-23T09:58:01;11.20;68.00
84902;DHT22;75166;51.198;6.010;2024-03-23T10:00:27;11.20;68.20
84902;DHT22;75166;51.198;6.010;2024-03-23T10:02:55;11.20;68.30
84902;DHT22;75166;51.198;6.010;2024-03-23T10:05:22;11.20;68.30
84902;DHT22;75166;51.198;6.010;2024-03-23T10:07:51;11.40;68.00
84902;DHT22;75166;51.198;6.010;2024-03-23T10:10:17;11.20;68.00
84902;DHT22;75166;51.198;6.010;2024-03-23T10:12:48;11.30;68.10
84902;DHT22;75166;51.198;6.010;2024-03-23T10:15:25;11.30;68.20
84902;DHT22;75166;51.198;6.010;2024-03-23T10:17:52;11.30;67.60
84902;DHT22;75166;51.198;6.010;2024-03-23T10:20:23;11.30;68.00
84902;DHT22;75166;51.198;6.010;2024-03-23T10:22:50;11.30;68.00
84902;DHT22;75166;51.198;6.010;2024-03-23T10:25:17;11.20;68.30
84902;DHT22;75166;51.198;6.010;2024-03-23T10:27:42;11.20;68.20
84902;DHT22;75166;51.198;6.010;2024-03-23T10:30:15;11.20;68.10
84902;DHT22;75166;51.198;6.010;2024-03-23T10:32:41;11.20;67.80
84902;DHT22;75166;51.198;6.010;2024-03-23T10:35:21;11.20;68.00
84902;DHT22;75166;51.198;6.010;2024-03-23T10:37:48;11.20;67.60
84902;DHT22;75166;51.198;6.010;2024-03-23T10:40:17;11.20;67.80
84902;DHT22;75166;51.198;6.010;2024-03-23T10:42:44;11.20;67.80
84902;DHT22;75166;51.198;6.010;2024-03-23T10:45:10;11.20;68.50
84902;DHT22;75166;51.198;6.010;2024-03-23T10:47:36;11.20;67.70
84902;DHT22;75166;51.198;6.010;2024-03-23T10:50:06;11.20;67.80
84902;DHT22;75166;51.198;6.010;2024-03-23T10:52:35;11.20;67.60
84902;DHT22;75166;51.198;6.010;2024-03-23T10:55:04;11.20;67.20
84902;DHT22;75166;51.198;6.010;2024-03-23T10:57:40;11.20;66.90
84902;DHT22;75166;51.198;6.010;2024-03-23T11:00:10;11.20;67.10
84902;DHT22;75166;51.198;6.010;2024-03-23T11:02:36;11.20;66.90
84902;DHT22;75166;51.198;6.010;2024-03-23T11:05:02;11.20;66.90
84902;DHT22;75166;51.198;6.010;2024-03-23T11:07:49;11.20;66.90
84902;DHT22;75166;51.198;6.010;2024-03-23T11:10:29;11.30;67.00
84902;DHT22;75166;51.198;6.010;2024-03-23T11:13:21;11.30;67.00
84902;DHT22;75166;51.198;6.010;2024-03-23T11:15:44;11.30;66.90
84902;DHT22;75166;51.198;6.010;2024-03-23T11:18:10;11.20;66.90
84902;DHT22;75166;51.198;6.010;2024-03-23T11:20:37;11.20;67.00
84902;DHT22;75166;51.198;6.010;2024-03-23T11:23:03;11.20;67.10
84902;DHT22;75166;51.198;6.010;2024-03-23T11:25:29;11.20;67.00
84902;DHT22;75166;51.198;6.010;2024-03-23T11:27:56;11.20;67.00
84902;DHT22;75166;51.198;6.010;2024-03-23T11:30:27;11.20;66.70
84902;DHT22;75166;51.198;6.010;2024-03-23T11:32:57;11.20;66.50
84902;DHT22;75166;51.198;6.010;2024-03-23T11:38:15;11.20;66.20
84902;DHT22;75166;51.198;6.010;2024-03-23T11:40:42;11.20;66.80
84902;DHT22;75166;51.198;6.010;2024-03-23T11:43:18;11.10;66.70
84902;DHT22;75166;51.198;6.010;2024-03-23T11:45:51;11.10;66.70
84902;DHT22;75166;51.198;6.010;2024-03-23T11:48:19;11.10;66.50
84902;DHT22;75166;51.198;6.010;2024-03-23T11:50:47;11.10;66.00
84902;DHT22;75166;51.198;6.010;2024-03-23T11:55:52;11.10;65.70
84902;DHT22;75166;51.198;6.010;2024-03-23T11:58:20;11.10;65.60
84902;DHT22;75166;51.198;6.010;2024-03-23T12:00:56;11.10;65.70
84902;DHT22;75166;51.198;6.010;2024-03-23T12:03:21;11.10;65.90
84902;DHT22;75166;51.198;6.010;2024-03-23T12:05:52;11.10;65.90
84902;DHT22;75166;51.198;6.010;2024-03-23T12:08:20;11.10;65.60
84902;DHT22;75166;51.198;6.010;2024-03-23T12:10:50;11.10;65.80
84902;DHT22;75166;51.198;6.010;2024-03-23T12:13:20;11.00;65.30
84902;DHT22;75166;51.198;6.010;2024-03-23T12:15:48;11.10;65.10
84902;DHT22;75166;51.198;6.010;2024-03-23T12:18:14;11.20;64.90
84902;DHT22;75166;51.198;6.010;2024-03-23T12:20:40;11.20;65.00
84902;DHT22;75166;51.198;6.010;2024-03-23T12:25:32;11.30;66.10
84902;DHT22;75166;51.198;6.010;2024-03-23T12:28:01;11.40;65.80
84902;DHT22;75166;51.198;6.010;2024-03-23T12:30:30;11.40;66.10
84902;DHT22;75166;51.198;6.010;2024-03-23T12:32:58;11.40;66.30
84902;DHT22;75166;51.198;6.010;2024-03-23T12:35:23;11.50;66.50
84902;DHT22;75166;51.198;6.010;2024-03-23T12:37:49;11.50;66.50
84902;DHT22;75166;51.198;6.010;2024-03-23T12:40:14;11.50;66.50
84902;DHT22;75166;51.198;6.010;2024-03-23T12:42:40;11.50;66.50
84902;DHT22;75166;51.198;6.010;2024-03-23T12:45:06;11.60;66.60
84902;DHT22;75166;51.198;6.010;2024-03-23T12:47:32;11.60;66.70
84902;DHT22;75166;51.198;6.010;2024-03-23T12:49:57;11.60;66.70
84902;DHT22;75166;51.198;6.010;2024-03-23T12:52:23;11.60;66.80
84902;DHT22;75166;51.198;6.010;2024-03-23T12:54:55;11.60;66.70
84902;DHT22;75166;51.198;6.010;2024-03-23T12:57:22;11.70;66.90
84902;DHT22;75166;51.198;6.010;2024-03-23T12:59:48;11.70;66.50
84902;DHT22;75166;51.198;6.010;2024-03-23T13:02:17;11.70;66.10
84902;DHT22;75166;51.198;6.010;2024-03-23T13:04:44;11.70;65.20
84902;DHT22;75166;51.198;6.010;2024-03-23T13:07:09;11.70;64.10
84902;DHT22;75166;51.198;6.010;2024-03-23T13:09:35;11.70;63.90
84902;DHT22;75166;51.198;6.010;2024-03-23T13:12:01;11.70;63.10
84902;DHT22;75166;51.198;6.010;2024-03-23T13:14:29;11.60;64.10
84902;DHT22;75166;51.198;6.010;2024-03-23T13:16:55;11.60;63.80
84902;DHT22;75166;51.198;6.010;2024-03-23T13:19:20;11.60;63.80
84902;DHT22;75166;51.198;6.010;2024-03-23T13:21:50;11.60;64.10
84902;DHT22;75166;51.198;6.010;2024-03-23T13:24:16;11.70;63.60
84902;DHT22;75166;51.198;6.010;2024-03-23T13:26:41;11.60;63.00
84902;DHT22;75166;51.198;6.010;2024-03-23T13:29:07;11.70;63.20
84902;DHT22;75166;51.198;6.010;2024-03-23T13:31:35;11.60;63.80
84902;DHT22;75166;51.198;6.010;2024-03-23T13:34:00;11.70;64.00
84902;DHT22;75166;51.198;6.010;2024-03-23T13:36:29;11.70;63.60
84902;DHT22;75166;51.198;6.010;2024-03-23T13:38:55;11.70;63.40
84902;DHT22;75166;51.198;6.010;2024-03-23T13:41:20;11.70;63.80
84902;DHT22;75166;51.198;6.010;2024-03-23T13:43:46;11.70;64.30
84902;DHT22;75166;51.198;6.010;2024-03-23T13:46:12;11.60;64.40
84902;DHT22;75166;51.198;6.010;2024-03-23T13:48:37;11.60;64.90
84902;DHT22;75166;51.198;6.010;2024-03-23T13:51:04;11.60;64.90
84902;DHT22;75166;51.198;6.010;2024-03-23T13:53:30;11.50;65.20
84902;DHT22;75166;51.198;6.010;2024-03-23T13:55:56;11.50;65.40
84902;DHT22;75166;51.198;6.010;2024-03-23T13:58:25;11.50;65.50
84902;DHT22;75166;51.198;6.010;2024-03-23T14:00:51;11.50;65.50
84902;DHT22;75166;51.198;6.010;2024-03-23T14:03:17;11.50;65.60
84902;DHT22;75166;51.198;6.010;2024-03-23T14:05:43;11.50;65.60
84902;DHT22;75166;51.198;6.010;2024-03-23T14:08:10;11.50;65.60
84902;DHT22;75166;51.198;6.010;2024-03-23T14:10:40;11.50;65.60
84902;DHT22;75166;51.198;6.010;2024-03-23T14:13:05;11.50;65.70
84902;DHT22;75166;51.198;6.010;2024-03-23T14:15:31;11.50;65.60
84902;DHT22;75166;51.198;6.010;2024-03-23T14:17:57;11.60;65.50
84902;DHT22;75166;51.198;6.010;2024-03-23T14:20:23;11.60;65.30
84902;DHT22;75166;51.198;6.010;2024-03-23T14:22:49;11.60;64.70
84902;DHT22;75166;51.198;6.010;2024-03-23T14:25:15;11.60;64.90
84902;DHT22;75166;51.198;6.010;2024-03-23T14:27:41;11.60;64.90
84902;DHT22;75166;51.198;6.010;2024-03-23T14:30:09;11.60;64.90
84902;DHT22;75166;51.198;6.010;2024-03-23T14:32:35;11.60;64.70
84902;DHT22;75166;51.198;6.010;2024-03-23T14:35:01;11.60;65.00
84902;DHT22;75166;51.198;6.010;2024-03-23T14:37:28;11.60;64.80
84902;DHT22;75166;51.198;6.010;2024-03-23T14:40:08;11.60;64.70
84902;DHT22;75166;51.198;6.010;2024-03-23T14:48:32;11.70;65.10
84902;DHT22;75166;51.198;6.010;2024-03-23T14:50:59;11.80;65.10
84902;DHT22;75166;51.198;6.010;2024-03-23T14:53:25;11.60;65.00
84902;DHT22;75166;51.198;6.010;2024-03-23T14:55:54;11.60;64.70
84902;DHT22;75166;51.198;6.010;2024-03-23T14:58:20;11.60;64.20
84902;DHT22;75166;51.198;6.010;2024-03-23T15:00:45;11.60;64.40
84902;DHT22;75166;51.198;6.010;2024-03-23T15:03:11;11.50;64.90
84902;DHT22;75166;51.198;6.010;2024-03-23T15:05:36;11.50;64.00
84902;DHT22;75166;51.198;6.010;2024-03-23T15:08:03;11.50;64.10
84902;DHT22;75166;51.198;6.010;2024-03-23T15:10:28;11.50;64.30
84902;DHT22;75166;51.198;6.010;2024-03-23T15:12:54;11.40;64.50
84902;DHT22;75166;51.198;6.010;2024-03-23T15:15:20;11.40;64.50
84902;DHT22;75166;51.198;6.010;2024-03-23T15:17:46;11.50;64.90
84902;DHT22;75166;51.198;6.010;2024-03-23T15:20:11;11.40;64.90
84902;DHT22;75166;51.198;6.010;2024-03-23T15:22:38;11.40;64.80
84902;DHT22;75166;51.198;6.010;2024-03-23T15:25:04;11.40;64.60
84902;DHT22;75166;51.198;6.010;2024-03-23T15:27:29;11.40;64.70
84902;DHT22;75166;51.198;6.010;2024-03-23T15:29:58;11.30;64.70
84902;DHT22;75166;51.198;6.010;2024-03-23T15:32:23;11.40;64.80
84902;DHT22;75166;51.198;6.010;2024-03-23T15:34:49;11.40;64.50
84902;DHT22;75166;51.198;6.010;2024-03-23T15:37:15;11.30;64.60
84902;DHT22;75166;51.198;6.010;2024-03-23T15:39:40;11.30;64.30
84902;DHT22;75166;51.198;6.010;2024-03-23T15:42:09;11.30;64.30
84902;DHT22;75166;51.198;6.010;2024-03-23T15:44:35;11.30;65.00
84902;DHT22;75166;51.198;6.010;2024-03-23T15:47:01;11.30;64.70
84902;DHT22;75166;51.198;6.010;2024-03-23T15:49:27;11.30;64.60
84902;DHT22;75166;51.198;6.010;2024-03-23T15:51:52;11.30;64.40
84902;DHT22;75166;51.198;6.010;2024-03-23T15:54:19;11.30;64.40
84902;DHT22;75166;51.198;6.010;2024-03-23T15:56:44;11.30;64.50
84902;DHT22;75166;51.198;6.010;2024-03-23T15:59:10;11.40;64.30
84902;DHT22;75166;51.198;6.010;2024-03-23T16:01:35;12.30;62.60
84902;DHT22;75166;51.198;6.010;2024-03-23T16:04:03;13.80;56.70
84902;DHT22;75166;51.198;6.010;2024-03-23T16:06:28;14.60;54.90
84902;DHT22;75166;51.198;6.010;2024-03-23T16:08:54;14.70;54.20
84902;DHT22;75166;51.198;6.010;2024-03-23T16:11:19;14.40;54.60
84902;DHT22;75166;51.198;6.010;2024-03-23T16:13:45;14.00;55.60
84902;DHT22;75166;51.198;6.010;2024-03-23T16:16:12;13.60;56.40
84902;DHT22;75166;51.198;6.010;2024-03-23T16:18:38;13.20;57.10
84902;DHT22;75166;51.198;6.010;2024-03-23T16:21:07;13.00;57.90
84902;DHT22;75166;51.198;6.010;2024-03-23T16:23:34;12.80;58.50
84902;DHT22;75166;51.198;6.010;2024-03-23T16:26:00;12.60;58.40
84902;DHT22;75166;51.198;6.010;2024-03-23T16:28:31;12.40;59.20
84902;DHT22;75166;51.198;6.010;2024-03-23T16:31:01;12.30;58.50
84902;DHT22;75166;51.198;6.010;2024-03-23T16:33:28;12.10;58.90
84902;DHT22;75166;51.198;6.010;2024-03-23T16:38:28;12.00;59.40
84902;DHT22;75166;51.198;6.010;2024-03-23T16:41:03;11.90;59.90